sensor_id;sensor_type;location;lat;lon;timestamp;P1;durP1;ratioP1;P2;durP2;ratioP2
33495;SDS011;19836;55.812;37.560;2022-12-18T00:01:16;10.10;;;7.28;;
33495;SDS011;19836;55.812;37.560;2022-12-18T00:03:47;10.82;;;6.80;;
33495;SDS011;19836;55.812;37.560;2022-12-18T00:06:13;11.80;;;8.13;;
33495;SDS011;19836;55.812;37.560;2022-12-18T00:08:43;11.13;;;7.88;;
33495;SDS011;19836;55.812;37.560;2022-12-18T00:11:13;9.75;;;7.32;;
33495;SDS011;19836;55.812;37.560;2022-12-18T00:13:41;6.97;;;5.68;;
33495;SDS011;19836;55.812;37.560;2022-12-18T00:16:15;9.77;;;7.20;;
33495;SDS011;19836;55.812;37.560;2022-12-18T00:18:46;6.80;;;5.55;;
33495;SDS011;19836;55.812;37.560;2022-12-18T00:21:13;7.20;;;5.32;;
33495;SDS011;19836;55.812;37.560;2022-12-18T00:23:40;9.07;;;6.85;;
33495;SDS011;19836;55.812;37.560;2022-12-18T00:26:10;7.20;;;5.28;;
33495;SDS011;19836;55.812;37.560;2022-12-18T00:28:43;7.28;;;5.55;;
33495;SDS011;19836;55.812;37.560;2022-12-18T00:31:12;8.57;;;5.75;;
33495;SDS011;19836;55.812;37.560;2022-12-18T00:33:40;10.35;;;7.00;;
33495;SDS011;19836;55.812;37.560;2022-12-18T00:36:12;9.00;;;6.85;;
33495;SDS011;19836;55.812;37.560;2022-12-18T00:38:40;9.88;;;6.18;;
33495;SDS011;19836;55.812;37.560;2022-12-18T00:41:07;10.00;;;6.88;;
33495;SDS011;19836;55.812;37.560;2022-12-18T00:43:35;10.00;;;6.80;;
33495;SDS011;19836;55.812;37.560;2022-12-18T00:46:01;9.30;;;6.38;;
33495;SDS011;19836;55.812;37.560;2022-12-18T00:48:27;10.10;;;5.93;;
33495;SDS011;19836;55.812;37.560;2022-12-18T00:50:53;8.30;;;5.88;;
33495;SDS011;19836;55.812;37.560;2022-12-18T00:53:19;10.90;;;7.68;;
33495;SDS011;19836;55.812;37.560;2022-12-18T00:55:45;6.30;;;4.55;;
33495;SDS011;19836;55.812;37.560;2022-12-18T00:58:12;8.02;;;6.32;;
33495;SDS011;19836;55.812;37.560;2022-12-18T01:00:40;8.35;;;6.15;;
33495;SDS011;19836;55.812;37.560;2022-12-18T01:03:12;9.35;;;6.60;;
33495;SDS011;19836;55.812;37.560;2022-12-18T01:05:39;6.68;;;4.70;;
33495;SDS011;19836;55.812;37.560;2022-12-18T01:08:06;8.93;;;6.70;;
33495;SDS011;19836;55.812;37.560;2022-12-18T01:10:32;8.30;;;6.32;;
33495;SDS011;19836;55.812;37.560;2022-12-18T01:12:58;6.22;;;4.88;;
33495;SDS011;19836;55.812;37.560;2022-12-18T01:15:24;8.18;;;6.18;;
33495;SDS011;19836;55.812;37.560;2022-12-18T01:17:51;9.40;;;6.07;;
33495;SDS011;19836;55.812;37.560;2022-12-18T01:20:18;9.27;;;6.55;;
33495;SDS011;19836;55.812;37.560;2022-12-18T01:22:44;8.18;;;6.15;;
33495;SDS011;19836;55.812;37.560;2022-12-18T01:25:10;7.68;;;5.45;;
33495;SDS011;19836;55.812;37.560;2022-12-18T01:27:36;8.57;;;6.05;;
33495;SDS011;19836;55.812;37.560;2022-12-18T01:30:03;8.27;;;5.85;;
33495;SDS011;19836;55.812;37.560;2022-12-18T01:32:30;9.23;;;5.97;;
33495;SDS011;19836;55.812;37.560;2022-12-18T01:34:57;7.88;;;5.80;;
33495;SDS011;19836;55.812;37.560;2022-12-18T01:37:22;9.20;;;6.38;;
33495;SDS011;19836;55.812;37.560;2022-12-18T01:39:48;8.40;;;6.00;;
33495;SDS011;19836;55.812;37.560;2022-12-18T01:42:15;8.82;;;6.22;;
33495;SDS011;19836;55.812;37.560;2022-12-18T01:52:40;9.25;;;6.00;;
33495;SDS011;19836;55.812;37.560;2022-12-18T01:55:16;7.65;;;5.50;;
33495;SDS011;19836;55.812;37.560;2022-12-18T01:57:45;7.47;;;5.25;;
33495;SDS011;19836;55.812;37.560;2022-12-18T02:00:14;8.23;;;5.90;;
33495;SDS011;19836;55.812;37.560;2022-12-18T02:02:45;9.35;;;5.82;;
33495;SDS011;19836;55.812;37.560;2022-12-18T02:05:12;8.52;;;5.95;;
33495;SDS011;19836;55.812;37.560;2022-12-18T02:10:57;6.72;;;4.72;;
33495;SDS011;19836;55.812;37.560;2022-12-18T02:22:34;6.72;;;5.13;;
33495;SDS011;19836;55.812;37.560;2022-12-18T02:28:13;6.78;;;4.80;;
33495;SDS011;19836;55.812;37.560;2022-12-18T02:30:42;7.70;;;5.63;;
33495;SDS011;19836;55.812;37.560;2022-12-18T02:33:09;7.55;;;5.57;;
33495;SDS011;19836;55.812;37.560;2022-12-18T02:35:38;8.13;;;5.45;;
33495;SDS011;19836;55.812;37.560;2022-12-18T02:38:07;8.18;;;5.47;;
33495;SDS011;19836;55.812;37.560;2022-12-18T02:40:35;8.18;;;5.63;;
33495;SDS011;19836;55.812;37.560;2022-12-18T02:43:07;8.57;;;6.03;;
33495;SDS011;19836;55.812;37.560;2022-12-18T02:45:48;10.30;;;5.72;;
33495;SDS011;19836;55.812;37.560;2022-12-18T02:48:18;7.78;;;5.53;;
33495;SDS011;19836;55.812;37.560;2022-12-18T02:50:58;7.32;;;5.72;;
33495;SDS011;19836;55.812;37.560;2022-12-18T02:53:45;9.30;;;5.72;;
33495;SDS011;19836;55.812;37.560;2022-12-18T02:56:19;6.50;;;5.15;;
33495;SDS011;19836;55.812;37.560;2022-12-18T03:04:10;9.15;;;5.18;;
33495;SDS011;19836;55.812;37.560;2022-12-18T03:06:41;8.05;;;5.22;;
33495;SDS011;19836;55.812;37.560;2022-12-18T03:09:14;7.65;;;5.20;;
33495;SDS011;19836;55.812;37.560;2022-12-18T03:11:56;6.85;;;4.93;;
33495;SDS011;19836;55.812;37.560;2022-12-18T03:15:34;7.13;;;4.93;;
33495;SDS011;19836;55.812;37.560;2022-12-18T03:17:36;8.27;;;4.80;;
33495;SDS011;19836;55.812;37.560;2022-12-18T03:20:08;7.10;;;4.70;;
33495;SDS011;19836;55.812;37.560;2022-12-18T03:22:40;5.50;;;4.28;;
33495;SDS011;19836;55.812;37.560;2022-12-18T03:25:09;6.38;;;4.32;;
33495;SDS011;19836;55.812;37.560;2022-12-18T03:30:11;4.45;;;3.85;;
33495;SDS011;19836;55.812;37.560;2022-12-18T03:35:29;8.15;;;5.30;;
33495;SDS011;19836;55.812;37.560;2022-12-18T03:37:59;6.75;;;4.57;;
33495;SDS011;19836;55.812;37.560;2022-12-18T03:40:32;6.15;;;4.63;;
33495;SDS011;19836;55.812;37.560;2022-12-18T03:43:32;7.75;;;5.03;;
33495;SDS011;19836;55.812;37.560;2022-12-18T03:48:59;6.63;;;4.50;;
33495;SDS011;19836;55.812;37.560;2022-12-18T03:54:04;6.60;;;4.60;;
33495;SDS011;19836;55.812;37.560;2022-12-18T03:56:40;6.80;;;4.35;;
33495;SDS011;19836;55.812;37.560;2022-12-18T03:59:11;6.03;;;4.10;;
33495;SDS011;19836;55.812;37.560;2022-12-18T04:04:13;6.70;;;4.85;;
33495;SDS011;19836;55.812;37.560;2022-12-18T04:06:43;5.75;;;4.13;;
33495;SDS011;19836;55.812;37.560;2022-12-18T04:09:12;5.60;;;4.10;;
33495;SDS011;19836;55.812;37.560;2022-12-18T04:11:43;8.45;;;5.22;;
33495;SDS011;19836;55.812;37.560;2022-12-18T04:14:10;6.60;;;4.97;;
33495;SDS011;19836;55.812;37.560;2022-12-18T04:16:37;6.85;;;4.97;;
33495;SDS011;19836;55.812;37.560;2022-12-18T04:19:05;8.35;;;4.60;;
33495;SDS011;19836;55.812;37.560;2022-12-18T04:21:37;5.70;;;4.47;;
33495;SDS011;19836;55.812;37.560;2022-12-18T04:24:04;6.45;;;4.47;;
33495;SDS011;19836;55.812;37.560;2022-12-18T04:26:31;6.10;;;4.35;;
33495;SDS011;19836;55.812;37.560;2022-12-18T04:29:23;7.55;;;4.53;;
33495;SDS011;19836;55.812;37.560;2022-12-18T04:31:49;5.47;;;4.85;;
33495;SDS011;19836;55.812;37.560;2022-12-18T04:34:16;5.95;;;4.65;;
33495;SDS011;19836;55.812;37.560;2022-12-18T04:36:47;6.28;;;4.40;;
33495;SDS011;19836;55.812;37.560;2022-12-18T04:39:17;6.65;;;4.28;;
33495;SDS011;19836;55.812;37.560;2022-12-18T04:41:44;6.10;;;4.75;;
33495;SDS011;19836;55.812;37.560;2022-12-18T04:44:11;6.75;;;4.75;;
33495;SDS011;19836;55.812;37.560;2022-12-18T04:46:37;5.95;;;4.57;;
33495;SDS011;19836;55.812;37.560;2022-12-18T04:49:03;6.65;;;4.88;;
33495;SDS011;19836;55.812;37.560;2022-12-18T04:51:29;5.95;;;4.53;;
33495;SDS011;19836;55.812;37.560;2022-12-18T04:53:55;6.07;;;4.00;;
33495;SDS011;19836;55.812;37.560;2022-12-18T04:56:21;6.22;;;4.85;;
33495;SDS011;19836;55.812;37.560;2022-12-18T04:58:48;6.85;;;4.85;;
33495;SDS011;19836;55.812;37.560;2022-12-18T05:01:14;6.47;;;4.97;;
33495;SDS011;19836;55.812;37.560;2022-12-18T05:03:41;6.20;;;4.72;;
33495;SDS011;19836;55.812;37.560;2022-12-18T05:06:08;6.78;;;4.43;;
33495;SDS011;19836;55.812;37.560;2022-12-18T05:08:34;7.00;;;5.22;;
33495;SDS011;19836;55.812;37.560;2022-12-18T05:13:32;7.25;;;4.80;;
33495;SDS011;19836;55.812;37.560;2022-12-18T05:15:59;6.72;;;4.90;;
33495;SDS011;19836;55.812;37.560;2022-12-18T05:18:25;6.95;;;4.43;;
33495;SDS011;19836;55.812;37.560;2022-12-18T05:20:52;7.38;;;4.80;;
33495;SDS011;19836;55.812;37.560;2022-12-18T05:23:19;7.47;;;5.00;;
33495;SDS011;19836;55.812;37.560;2022-12-18T05:25:52;5.72;;;4.55;;
33495;SDS011;19836;55.812;37.560;2022-12-18T05:28:20;6.13;;;4.88;;
33495;SDS011;19836;55.812;37.560;2022-12-18T05:30:50;8.00;;;5.72;;
33495;SDS011;19836;55.812;37.560;2022-12-18T05:33:18;7.22;;;5.13;;
33495;SDS011;19836;55.812;37.560;2022-12-18T05:35:49;7.13;;;4.68;;
33495;SDS011;19836;55.812;37.560;2022-12-18T05:38:19;7.63;;;4.97;;
33495;SDS011;19836;55.812;37.560;2022-12-18T05:40:47;6.88;;;4.43;;
33495;SDS011;19836;55.812;37.560;2022-12-18T05:43:13;6.78;;;5.13;;
33495;SDS011;19836;55.812;37.560;2022-12-18T05:45:39;8.02;;;5.13;;
33495;SDS011;19836;55.812;37.560;2022-12-18T05:48:06;6.60;;;4.30;;
33495;SDS011;19836;55.812;37.560;2022-12-18T05:50:34;6.80;;;4.88;;
33495;SDS011;19836;55.812;37.560;2022-12-18T05:53:01;7.43;;;4.97;;
33495;SDS011;19836;55.812;37.560;2022-12-18T05:55:28;7.47;;;5.25;;
33495;SDS011;19836;55.812;37.560;2022-12-18T05:57:54;6.82;;;4.70;;
33495;SDS011;19836;55.812;37.560;2022-12-18T06:00:20;8.15;;;5.18;;
33495;SDS011;19836;55.812;37.560;2022-12-18T06:02:46;6.20;;;4.93;;
33495;SDS011;19836;55.812;37.560;2022-12-18T06:05:12;7.13;;;5.03;;
33495;SDS011;19836;55.812;37.560;2022-12-18T06:07:39;6.30;;;4.75;;
33495;SDS011;19836;55.812;37.560;2022-12-18T06:10:06;5.55;;;4.32;;
33495;SDS011;19836;55.812;37.560;2022-12-18T06:12:32;6.32;;;4.68;;
33495;SDS011;19836;55.812;37.560;2022-12-18T06:15:01;6.15;;;4.53;;
33495;SDS011;19836;55.812;37.560;2022-12-18T06:17:31;7.10;;;4.88;;
33495;SDS011;19836;55.812;37.560;2022-12-18T06:19:58;6.27;;;3.63;;
33495;SDS011;19836;55.812;37.560;2022-12-18T06:22:24;7.47;;;4.50;;
33495;SDS011;19836;55.812;37.560;2022-12-18T06:24:50;6.72;;;4.88;;
33495;SDS011;19836;55.812;37.560;2022-12-18T06:27:16;8.25;;;4.40;;
33495;SDS011;19836;55.812;37.560;2022-12-18T06:29:42;7.43;;;5.18;;
33495;SDS011;19836;55.812;37.560;2022-12-18T06:32:08;6.03;;;4.32;;
33495;SDS011;19836;55.812;37.560;2022-12-18T06:34:34;8.05;;;5.03;;
33495;SDS011;19836;55.812;37.560;2022-12-18T06:37:03;5.68;;;4.22;;
33495;SDS011;19836;55.812;37.560;2022-12-18T06:39:29;6.80;;;4.28;;
33495;SDS011;19836;55.812;37.560;2022-12-18T06:41:55;6.70;;;4.60;;
33495;SDS011;19836;55.812;37.560;2022-12-18T06:44:21;6.95;;;4.68;;
33495;SDS011;19836;55.812;37.560;2022-12-18T06:46:48;7.88;;;4.95;;
33495;SDS011;19836;55.812;37.560;2022-12-18T06:49:16;5.72;;;4.57;;
33495;SDS011;19836;55.812;37.560;2022-12-18T06:51:42;5.85;;;4.20;;
33495;SDS011;19836;55.812;37.560;2022-12-18T06:54:08;6.15;;;4.40;;
33495;SDS011;19836;55.812;37.560;2022-12-18T06:56:34;6.55;;;3.53;;
33495;SDS011;19836;55.812;37.560;2022-12-18T06:59:00;4.93;;;3.55;;
33495;SDS011;19836;55.812;37.560;2022-12-18T07:01:26;6.47;;;4.75;;
33495;SDS011;19836;55.812;37.560;2022-12-18T07:03:53;8.40;;;5.13;;
33495;SDS011;19836;55.812;37.560;2022-12-18T07:06:22;6.55;;;4.47;;
33495;SDS011;19836;55.812;37.560;2022-12-18T07:08:52;6.00;;;4.70;;
33495;SDS011;19836;55.812;37.560;2022-12-18T07:11:22;4.97;;;3.85;;
33495;SDS011;19836;55.812;37.560;2022-12-18T07:14:14;5.90;;;4.32;;
33495;SDS011;19836;55.812;37.560;2022-12-18T07:16:52;7.03;;;4.45;;
33495;SDS011;19836;55.812;37.560;2022-12-18T07:20:00;6.03;;;4.32;;
33495;SDS011;19836;55.812;37.560;2022-12-18T07:22:26;6.10;;;4.65;;
33495;SDS011;19836;55.812;37.560;2022-12-18T07:24:52;7.65;;;4.50;;
33495;SDS011;19836;55.812;37.560;2022-12-18T07:27:24;7.50;;;4.63;;
33495;SDS011;19836;55.812;37.560;2022-12-18T07:29:56;7.15;;;4.57;;
33495;SDS011;19836;55.812;37.560;2022-12-18T07:32:22;7.00;;;4.60;;
33495;SDS011;19836;55.812;37.560;2022-12-18T07:34:49;7.03;;;5.03;;
33495;SDS011;19836;55.812;37.560;2022-12-18T07:37:15;6.15;;;4.60;;
33495;SDS011;19836;55.812;37.560;2022-12-18T07:39:46;7.88;;;4.45;;
33495;SDS011;19836;55.812;37.560;2022-12-18T07:42:12;5.45;;;3.70;;
33495;SDS011;19836;55.812;37.560;2022-12-18T07:44:56;5.40;;;4.03;;
33495;SDS011;19836;55.812;37.560;2022-12-18T07:47:23;5.85;;;4.05;;
33495;SDS011;19836;55.812;37.560;2022-12-18T07:49:49;8.45;;;4.50;;
33495;SDS011;19836;55.812;37.560;2022-12-18T07:52:14;6.63;;;4.85;;
33495;SDS011;19836;55.812;37.560;2022-12-18T07:54:41;6.78;;;4.70;;
33495;SDS011;19836;55.812;37.560;2022-12-18T07:57:07;5.78;;;4.13;;
33495;SDS011;19836;55.812;37.560;2022-12-18T07:59:33;6.32;;;4.47;;
33495;SDS011;19836;55.812;37.560;2022-12-18T08:01:59;6.15;;;4.68;;
33495;SDS011;19836;55.812;37.560;2022-12-18T08:04:25;8.45;;;3.92;;
33495;SDS011;19836;55.812;37.560;2022-12-18T08:06:51;6.70;;;4.40;;
33495;SDS011;19836;55.812;37.560;2022-12-18T08:09:17;5.68;;;4.10;;
33495;SDS011;19836;55.812;37.560;2022-12-18T08:11:43;6.30;;;4.50;;
33495;SDS011;19836;55.812;37.560;2022-12-18T08:14:09;9.80;;;4.30;;
33495;SDS011;19836;55.812;37.560;2022-12-18T08:16:35;5.82;;;4.45;;
33495;SDS011;19836;55.812;37.560;2022-12-18T08:19:02;7.15;;;4.30;;
33495;SDS011;19836;55.812;37.560;2022-12-18T08:21:29;7.60;;;4.05;;
33495;SDS011;19836;55.812;37.560;2022-12-18T08:23:56;6.05;;;4.35;;
33495;SDS011;19836;55.812;37.560;2022-12-18T08:26:25;5.10;;;3.80;;
33495;SDS011;19836;55.812;37.560;2022-12-18T08:28:53;5.85;;;4.45;;
33495;SDS011;19836;55.812;37.560;2022-12-18T08:31:20;5.78;;;3.92;;
33495;SDS011;19836;55.812;37.560;2022-12-18T08:33:50;5.78;;;3.90;;
33495;SDS011;19836;55.812;37.560;2022-12-18T08:38:48;8.95;;;4.90;;
33495;SDS011;19836;55.812;37.560;2022-12-18T08:41:14;6.35;;;4.05;;
33495;SDS011;19836;55.812;37.560;2022-12-18T08:43:41;6.15;;;4.30;;
33495;SDS011;19836;55.812;37.560;2022-12-18T08:46:26;7.32;;;5.05;;
33495;SDS011;19836;55.812;37.560;2022-12-18T08:48:56;6.78;;;3.97;;
33495;SDS011;19836;55.812;37.560;2022-12-18T08:54:11;5.03;;;3.90;;
33495;SDS011;19836;55.812;37.560;2022-12-18T08:56:39;6.15;;;4.10;;
33495;SDS011;19836;55.812;37.560;2022-12-18T08:59:05;7.97;;;5.03;;
33495;SDS011;19836;55.812;37.560;2022-12-18T09:01:30;5.55;;;3.78;;
33495;SDS011;19836;55.812;37.560;2022-12-18T09:03:56;5.57;;;4.25;;
33495;SDS011;19836;55.812;37.560;2022-12-18T09:06:22;7.22;;;4.82;;
33495;SDS011;19836;55.812;37.560;2022-12-18T09:08:48;6.63;;;4.82;;
33495;SDS011;19836;55.812;37.560;2022-12-18T09:11:19;6.82;;;3.85;;
33495;SDS011;19836;55.812;37.560;2022-12-18T09:13:47;5.72;;;4.22;;
33495;SDS011;19836;55.812;37.560;2022-12-18T09:16:16;6.63;;;4.63;;
33495;SDS011;19836;55.812;37.560;2022-12-18T09:18:44;5.07;;;3.47;;
33495;SDS011;19836;55.812;37.560;2022-12-18T09:21:14;5.00;;;4.00;;
33495;SDS011;19836;55.812;37.560;2022-12-18T09:23:48;7.63;;;4.38;;
33495;SDS011;19836;55.812;37.560;2022-12-18T09:26:15;6.22;;;3.95;;
33495;SDS011;19836;55.812;37.560;2022-12-18T09:28:41;6.47;;;3.72;;
33495;SDS011;19836;55.812;37.560;2022-12-18T09:31:07;6.05;;;4.13;;
33495;SDS011;19836;55.812;37.560;2022-12-18T09:33:36;7.40;;;4.32;;
33495;SDS011;19836;55.812;37.560;2022-12-18T09:36:06;5.43;;;3.65;;
33495;SDS011;19836;55.812;37.560;2022-12-18T09:38:34;6.38;;;4.15;;
33495;SDS011;19836;55.812;37.560;2022-12-18T09:45:07;5.65;;;3.67;;
33495;SDS011;19836;55.812;37.560;2022-12-18T09:47:38;4.82;;;3.67;;
33495;SDS011;19836;55.812;37.560;2022-12-18T09:50:13;5.90;;;3.72;;
33495;SDS011;19836;55.812;37.560;2022-12-18T09:52:48;4.15;;;3.08;;
33495;SDS011;19836;55.812;37.560;2022-12-18T09:55:28;4.72;;;3.30;;
33495;SDS011;19836;55.812;37.560;2022-12-18T09:58:07;3.97;;;2.83;;
33495;SDS011;19836;55.812;37.560;2022-12-18T10:01:00;5.38;;;3.67;;
33495;SDS011;19836;55.812;37.560;2022-12-18T10:03:28;5.85;;;3.90;;
33495;SDS011;19836;55.812;37.560;2022-12-18T10:06:38;4.75;;;3.35;;
33495;SDS011;19836;55.812;37.560;2022-12-18T10:09:01;4.63;;;3.63;;
33495;SDS011;19836;55.812;37.560;2022-12-18T10:23:01;4.30;;;3.35;;
33495;SDS011;19836;55.812;37.560;2022-12-18T10:26:04;5.25;;;3.38;;
33495;SDS011;19836;55.812;37.560;2022-12-18T10:28:32;5.72;;;3.88;;
33495;SDS011;19836;55.812;37.560;2022-12-18T10:31:00;6.60;;;3.65;;
33495;SDS011;19836;55.812;37.560;2022-12-18T10:33:30;6.72;;;4.22;;
33495;SDS011;19836;55.812;37.560;2022-12-18T10:38:28;4.97;;;3.35;;
33495;SDS011;19836;55.812;37.560;2022-12-18T10:43:31;5.22;;;3.50;;
33495;SDS011;19836;55.812;37.560;2022-12-18T10:46:12;5.10;;;3.80;;
33495;SDS011;19836;55.812;37.560;2022-12-18T10:51:07;5.53;;;3.42;;
33495;SDS011;19836;55.812;37.560;2022-12-18T10:53:33;6.22;;;4.20;;
33495;SDS011;19836;55.812;37.560;2022-12-18T10:56:02;7.13;;;4.00;;
33495;SDS011;19836;55.812;37.560;2022-12-18T10:58:34;6.07;;;4.13;;
33495;SDS011;19836;55.812;37.560;2022-12-18T11:03:45;4.93;;;3.50;;
33495;SDS011;19836;55.812;37.560;2022-12-18T11:06:20;7.97;;;4.97;;
33495;SDS011;19836;55.812;37.560;2022-12-18T11:11:26;6.63;;;3.80;;
33495;SDS011;19836;55.812;37.560;2022-12-18T11:16:29;5.45;;;4.10;;
33495;SDS011;19836;55.812;37.560;2022-12-18T11:19:12;6.03;;;3.75;;
33495;SDS011;19836;55.812;37.560;2022-12-18T11:21:55;6.32;;;3.90;;
33495;SDS011;19836;55.812;37.560;2022-12-18T11:24:32;5.53;;;3.90;;
33495;SDS011;19836;55.812;37.560;2022-12-18T11:27:03;5.95;;;3.95;;
33495;SDS011;19836;55.812;37.560;2022-12-18T11:37:57;3.97;;;3.30;;
33495;SDS011;19836;55.812;37.560;2022-12-18T11:40:35;6.35;;;4.00;;
33495;SDS011;19836;55.812;37.560;2022-12-18T11:43:07;5.60;;;3.58;;
33495;SDS011;19836;55.812;37.560;2022-12-18T11:46:24;4.60;;;3.42;;
33495;SDS011;19836;55.812;37.560;2022-12-18T11:53:39;3.65;;;2.47;;
33495;SDS011;19836;55.812;37.560;2022-12-18T11:56:18;4.95;;;2.92;;
33495;SDS011;19836;55.812;37.560;2022-12-18T12:01:48;4.38;;;3.00;;
33495;SDS011;19836;55.812;37.560;2022-12-18T12:04:31;4.20;;;2.58;;
33495;SDS011;19836;55.812;37.560;2022-12-18T12:18:40;4.30;;;3.22;;
33495;SDS011;19836;55.812;37.560;2022-12-18T12:23:47;6.95;;;3.10;;
33495;SDS011;19836;55.812;37.560;2022-12-18T12:37:36;3.80;;;2.15;;
33495;SDS011;19836;55.812;37.560;2022-12-18T12:40:24;3.80;;;2.95;;
33495;SDS011;19836;55.812;37.560;2022-12-18T12:43:38;3.72;;;2.65;;
33495;SDS011;19836;55.812;37.560;2022-12-18T12:46:11;4.28;;;2.72;;
33495;SDS011;19836;55.812;37.560;2022-12-18T12:48:43;5.00;;;2.80;;
33495;SDS011;19836;55.812;37.560;2022-12-18T12:51:37;4.65;;;3.13;;
33495;SDS011;19836;55.812;37.560;2022-12-18T12:54:22;4.53;;;2.80;;
33495;SDS011;19836;55.812;37.560;2022-12-18T13:07:50;5.85;;;3.67;;
33495;SDS011;19836;55.812;37.560;2022-12-18T13:12:56;6.80;;;3.22;;
33495;SDS011;19836;55.812;37.560;2022-12-18T13:20:42;11.10;;;5.05;;
33495;SDS011;19836;55.812;37.560;2022-12-18T13:25:55;14.02;;;8.00;;
33495;SDS011;19836;55.812;37.560;2022-12-18T13:30:59;18.40;;;8.55;;
33495;SDS011;19836;55.812;37.560;2022-12-18T13:33:35;16.45;;;8.43;;
33495;SDS011;19836;55.812;37.560;2022-12-18T13:41:39;16.25;;;7.40;;
33495;SDS011;19836;55.812;37.560;2022-12-18T13:44:21;14.40;;;7.78;;
33495;SDS011;19836;55.812;37.560;2022-12-18T13:46:51;15.38;;;7.90;;
33495;SDS011;19836;55.812;37.560;2022-12-18T13:49:23;15.00;;;8.48;;
33495;SDS011;19836;55.812;37.560;2022-12-18T13:54:56;14.77;;;7.20;;
33495;SDS011;19836;55.812;37.560;2022-12-18T13:57:35;15.48;;;8.13;;
33495;SDS011;19836;55.812;37.560;2022-12-18T14:10:22;15.88;;;8.52;;
33495;SDS011;19836;55.812;37.560;2022-12-18T14:12:54;13.63;;;6.68;;
33495;SDS011;19836;55.812;37.560;2022-12-18T14:18:00;14.77;;;7.57;;
33495;SDS011;19836;55.812;37.560;2022-12-18T14:20:28;11.80;;;6.00;;
33495;SDS011;19836;55.812;37.560;2022-12-18T14:22:57;10.23;;;6.03;;
33495;SDS011;19836;55.812;37.560;2022-12-18T14:28:57;8.82;;;4.80;;
33495;SDS011;19836;55.812;37.560;2022-12-18T14:31:29;7.75;;;4.72;;
33495;SDS011;19836;55.812;37.560;2022-12-18T14:34:14;6.47;;;4.22;;
33495;SDS011;19836;55.812;37.560;2022-12-18T14:36:57;6.47;;;4.30;;
33495;SDS011;19836;55.812;37.560;2022-12-18T14:40:02;6.35;;;4.28;;
33495;SDS011;19836;55.812;37.560;2022-12-18T14:42:42;3.65;;;2.40;;
33495;SDS011;19836;55.812;37.560;2022-12-18T14:50:41;5.78;;;3.70;;
33495;SDS011;19836;55.812;37.560;2022-12-18T14:56:21;6.38;;;3.90;;
33495;SDS011;19836;55.812;37.560;2022-12-18T14:58:55;6.13;;;4.18;;
33495;SDS011;19836;55.812;37.560;2022-12-18T15:01:36;6.25;;;3.92;;
33495;SDS011;19836;55.812;37.560;2022-12-18T15:04:05;6.65;;;3.88;;
33495;SDS011;19836;55.812;37.560;2022-12-18T15:12:28;5.40;;;3.35;;
33495;SDS011;19836;55.812;37.560;2022-12-18T15:15:00;5.10;;;3.28;;
33495;SDS011;19836;55.812;37.560;2022-12-18T15:17:26;6.40;;;3.72;;
33495;SDS011;19836;55.812;37.560;2022-12-18T15:19:59;6.32;;;3.95;;
33495;SDS011;19836;55.812;37.560;2022-12-18T15:22:33;4.00;;;2.95;;
33495;SDS011;19836;55.812;37.560;2022-12-18T15:25:00;5.28;;;3.88;;
33495;SDS011;19836;55.812;37.560;2022-12-18T15:27:31;6.65;;;3.78;;
33495;SDS011;19836;55.812;37.560;2022-12-18T15:33:20;5.03;;;4.00;;
33495;SDS011;19836;55.812;37.560;2022-12-18T15:35:58;7.10;;;4.32;;
33495;SDS011;19836;55.812;37.560;2022-12-18T15:46:06;3.85;;;2.97;;
33495;SDS011;19836;55.812;37.560;2022-12-18T15:48:40;6.63;;;4.50;;
33495;SDS011;19836;55.812;37.560;2022-12-18T15:51:34;7.03;;;4.00;;
33495;SDS011;19836;55.812;37.560;2022-12-18T15:54:11;5.55;;;3.33;;
33495;SDS011;19836;55.812;37.560;2022-12-18T15:56:42;5.32;;;3.80;;
33495;SDS011;19836;55.812;37.560;2022-12-18T15:59:55;5.28;;;3.72;;
33495;SDS011;19836;55.812;37.560;2022-12-18T16:02:33;5.10;;;3.38;;
33495;SDS011;19836;55.812;37.560;2022-12-18T16:05:11;5.03;;;3.97;;
33495;SDS011;19836;55.812;37.560;2022-12-18T16:12:03;3.42;;;2.72;;
33495;SDS011;19836;55.812;37.560;2022-12-18T16:14:32;5.60;;;3.88;;
33495;SDS011;19836;55.812;37.560;2022-12-18T16:17:02;5.82;;;3.70;;
33495;SDS011;19836;55.812;37.560;2022-12-18T16:19:31;5.03;;;3.97;;
33495;SDS011;19836;55.812;37.560;2022-12-18T16:21:57;5.45;;;3.72;;
33495;SDS011;19836;55.812;37.560;2022-12-18T16:24:25;7.05;;;4.70;;
33495;SDS011;19836;55.812;37.560;2022-12-18T16:26:56;5.95;;;4.28;;
33495;SDS011;19836;55.812;37.560;2022-12-18T16:29:25;7.05;;;4.38;;
33495;SDS011;19836;55.812;37.560;2022-12-18T16:32:27;5.95;;;3.90;;
33495;SDS011;19836;55.812;37.560;2022-12-18T16:34:59;4.95;;;3.90;;
33495;SDS011;19836;55.812;37.560;2022-12-18T16:37:26;5.55;;;3.83;;
33495;SDS011;19836;55.812;37.560;2022-12-18T16:41:01;5.55;;;3.47;;
33495;SDS011;19836;55.812;37.560;2022-12-18T16:44:00;7.38;;;3.67;;
33495;SDS011;19836;55.812;37.560;2022-12-18T16:46:27;4.88;;;3.25;;
33495;SDS011;19836;55.812;37.560;2022-12-18T16:48:58;5.45;;;3.97;;
33495;SDS011;19836;55.812;37.560;2022-12-18T16:51:27;4.35;;;3.45;;
33495;SDS011;19836;55.812;37.560;2022-12-18T16:53:54;4.43;;;3.40;;
33495;SDS011;19836;55.812;37.560;2022-12-18T16:56:22;4.85;;;3.65;;
33495;SDS011;19836;55.812;37.560;2022-12-18T16:58:49;7.07;;;4.25;;
33495;SDS011;19836;55.812;37.560;2022-12-18T17:01:19;6.50;;;4.05;;
33495;SDS011;19836;55.812;37.560;2022-12-18T17:03:56;6.95;;;4.65;;
33495;SDS011;19836;55.812;37.560;2022-12-18T17:06:25;6.97;;;4.30;;
33495;SDS011;19836;55.812;37.560;2022-12-18T17:08:56;6.40;;;4.38;;
33495;SDS011;19836;55.812;37.560;2022-12-18T17:11:25;8.38;;;5.13;;
33495;SDS011;19836;55.812;37.560;2022-12-18T17:13:52;8.00;;;6.07;;
33495;SDS011;19836;55.812;37.560;2022-12-18T17:16:18;6.25;;;4.65;;
33495;SDS011;19836;55.812;37.560;2022-12-18T17:18:44;7.90;;;4.95;;
33495;SDS011;19836;55.812;37.560;2022-12-18T17:27:14;7.47;;;4.32;;
33495;SDS011;19836;55.812;37.560;2022-12-18T17:32:31;8.25;;;4.50;;
33495;SDS011;19836;55.812;37.560;2022-12-18T17:35:25;6.13;;;3.92;;
33495;SDS011;19836;55.812;37.560;2022-12-18T17:49:45;7.82;;;4.05;;
33495;SDS011;19836;55.812;37.560;2022-12-18T17:52:41;5.35;;;3.70;;
33495;SDS011;19836;55.812;37.560;2022-12-18T17:55:16;6.20;;;3.78;;
33495;SDS011;19836;55.812;37.560;2022-12-18T17:58:16;6.72;;;4.18;;
33495;SDS011;19836;55.812;37.560;2022-12-18T18:01:03;5.32;;;3.45;;
33495;SDS011;19836;55.812;37.560;2022-12-18T18:03:33;5.35;;;3.90;;
33495;SDS011;19836;55.812;37.560;2022-12-18T18:06:38;6.85;;;3.83;;
33495;SDS011;19836;55.812;37.560;2022-12-18T18:09:08;8.15;;;4.22;;
33495;SDS011;19836;55.812;37.560;2022-12-18T18:18:07;8.00;;;4.43;;
33495;SDS011;19836;55.812;37.560;2022-12-18T18:20:40;6.75;;;4.07;;
33495;SDS011;19836;55.812;37.560;2022-12-18T18:23:11;6.97;;;4.30;;
33495;SDS011;19836;55.812;37.560;2022-12-18T18:25:37;8.35;;;4.53;;
33495;SDS011;19836;55.812;37.560;2022-12-18T18:31:14;7.40;;;4.95;;
33495;SDS011;19836;55.812;37.560;2022-12-18T18:37:13;7.00;;;4.68;;
33495;SDS011;19836;55.812;37.560;2022-12-18T18:46:03;11.63;;;5.32;;
33495;SDS011;19836;55.812;37.560;2022-12-18T18:48:36;9.20;;;5.78;;
33495;SDS011;19836;55.812;37.560;2022-12-18T18:54:09;10.30;;;6.13;;
33495;SDS011;19836;55.812;37.560;2022-12-18T19:09:08;7.38;;;4.22;;
33495;SDS011;19836;55.812;37.560;2022-12-18T19:11:40;10.07;;;5.43;;
33495;SDS011;19836;55.812;37.560;2022-12-18T19:14:30;10.82;;;5.85;;
33495;SDS011;19836;55.812;37.560;2022-12-18T19:17:22;13.60;;;5.85;;